Terminal Aerodrome Forecast
Issued by NWS Blacksburg, VA

Home | Current Version | Previous Version | Text Only | Print | Product List | Glossary On
Versions: 1 2 3 4 5 6 7 8 9 10 11 12 13 14 15 16 17 18 19 20 21 22 23 24 25 26 27 28 29 30 31 32 33 34 35 36
000
FTUS41 KRNK 281721
TAFDAN
TAF
KDAN 281721Z 2818/0118 04007KT P6SM BKN035
     FM281900 07004KT P6SM SCT018 BKN100
     FM010400 06004KT P6SM SCT015 BKN050
     FM011000 07003KT P6SM -FZRA SCT007 OVC015
     FM011200 06002KT 4SM -FZRA BR OVC007=

USA.gov is the U.S. government's official web portal to all federal, state and local government web resources and services.